Time;durP1;ratioP1;P1;durP2;ratioP2;P2;SDS_P1;SDS_P2;PMS_P1;PMS_P2;Temp;Humidity;BMP_temperature;BMP_pressure;BME280_temperature;BME280_humidity;BME280_pressure;Samples;Min_cycle;Max_cycle;Signal;HPM_P1;HPM_P2
2023/02/07 00:00:38;;;;;;;22.58;12.75;;;;;;;-4.07;84.48;98085.56;5012629;28;20048;-85
2023/02/07 00:03:05;;;;;;;20.33;12.05;;;;;;;-4.05;84.53;98067.56;5011802;28;20413;-82
2023/02/07 00:05:31;;;;;;;23.70;12.73;;;;;;;-4.06;83.79;98076.56;5012612;28;20053;-80
2023/02/07 00:07:58;;;;;;;21.23;12.27;;;;;;;-4.07;83.36;98079.38;5012225;28;20073;-79
2023/02/07 00:10:26;;;;;;;23.25;12.15;;;;;;;-4.13;83.21;98075.63;4995811;28;20782;-82
2023/02/07 00:12:52;;;;;;;21.77;12.98;;;;;;;-4.20;83.61;98064.88;5012131;28;20050;-83
2023/02/07 00:15:19;;;;;;;22.52;12.88;;;;;;;-4.19;83.66;98060.38;5009206;28;20061;-82
2023/02/07 00:17:46;;;;;;;25.77;12.45;;;;;;;-4.19;84.02;98068.38;5011532;28;20050;-83
2023/02/07 00:20:12;;;;;;;23.67;13.45;;;;;;;-4.18;83.99;98078.00;5010840;28;20074;-80
2023/02/07 00:22:39;;;;;;;21.63;12.75;;;;;;;-4.18;83.70;98067.34;5008468;28;20049;-85
2023/02/07 00:25:06;;;;;;;19.95;12.18;;;;;;;-4.18;83.63;98067.34;5011521;28;20046;-84
2023/02/07 00:27:34;;;;;;;21.17;12.32;;;;;;;-4.18;83.70;98061.22;5011725;28;20042;-81
2023/02/07 00:30:00;;;;;;;20.95;12.48;;;;;;;-4.20;83.31;98064.06;5011827;28;20060;-80
2023/02/07 00:32:31;;;;;;;22.80;12.50;;;;;;;-4.21;83.22;98062.41;5011605;28;20034;-83
2023/02/07 00:34:57;;;;;;;23.08;12.23;;;;;;;-4.27;82.96;98055.16;5011881;28;20729;-81
2023/02/07 00:37:24;;;;;;;24.90;12.48;;;;;;;-4.30;83.16;98058.19;4995383;28;20165;-83
2023/02/07 00:39:51;;;;;;;22.58;12.30;;;;;;;-4.29;83.13;98054.50;5011669;28;20049;-81
2023/02/07 00:42:17;;;;;;;22.15;12.88;;;;;;;-4.30;83.11;98058.19;5010813;28;20046;-80
2023/02/07 00:44:45;;;;;;;23.65;12.98;;;;;;;-4.34;83.54;98040.94;5011737;28;20513;-79
2023/02/07 00:47:11;;;;;;;24.98;11.77;;;;;;;-4.36;83.18;98042.97;5011163;28;20072;-82
2023/02/07 00:49:38;;;;;;;23.38;12.55;;;;;;;-4.34;83.00;98044.41;5011348;28;20050;-80
2023/02/07 00:52:05;;;;;;;22.55;12.10;;;;;;;-4.33;83.12;98053.22;5004606;28;20085;-83
2023/02/07 00:54:31;;;;;;;23.23;12.65;;;;;;;-4.36;83.78;98053.59;5011512;28;20061;-84
2023/02/07 00:56:58;;;;;;;22.65;12.30;;;;;;;-4.38;83.44;98055.63;5011276;28;20056;-79
2023/02/07 00:59:24;;;;;;;24.30;12.23;;;;;;;-4.42;83.81;98064.97;4994865;28;20053;-86
2023/02/07 01:01:52;;;;;;;25.50;13.30;;;;;;;-4.47;83.83;98074.31;5011440;28;20053;-85
2023/02/07 01:04:19;;;;;;;21.08;12.40;;;;;;;-4.47;84.07;98076.97;5010504;28;20081;-85
2023/02/07 01:06:45;;;;;;;20.85;12.05;;;;;;;-4.48;84.33;98077.16;5011162;28;20057;-81
2023/02/07 01:09:13;;;;;;;23.75;12.95;;;;;;;-4.48;84.10;98077.97;5010491;28;20046;-83
2023/02/07 01:11:39;;;;;;;23.25;13.13;;;;;;;-4.51;84.41;98083.63;5011128;28;20133;-79
2023/02/07 01:14:06;;;;;;;25.27;13.07;;;;;;;-4.48;84.03;98093.09;5010698;28;20045;-79
2023/02/07 01:16:35;;;;;;;24.55;13.13;;;;;;;-4.57;83.92;98097.66;5011139;28;20046;-83
2023/02/07 01:19:05;;;;;;;21.20;12.32;;;;;;;-4.53;83.96;98096.28;5010352;28;20042;-80
2023/02/07 01:21:32;;;;;;;25.73;12.93;;;;;;;-4.56;83.97;98106.44;5004766;28;20060;-86
2023/02/07 01:23:58;;;;;;;22.63;12.30;;;;;;;-4.51;83.78;98109.41;5011023;28;20689;-79
2023/02/07 01:26:25;;;;;;;22.08;12.15;;;;;;;-4.49;83.61;98112.69;4994429;28;20061;-83
2023/02/07 01:28:53;;;;;;;22.85;12.07;;;;;;;-4.50;83.75;98097.75;5009970;28;20038;-81
2023/02/07 01:31:20;;;;;;;24.92;11.77;;;;;;;-4.53;83.22;98101.63;5002518;28;20046;-80
2023/02/07 01:33:48;;;;;;;31.60;12.68;;;;;;;-4.61;83.05;98088.38;5011148;28;20046;-78
2023/02/07 01:36:16;;;;;;;23.00;12.15;;;;;;;-4.54;82.83;98081.34;5010355;28;20046;-82
2023/02/07 01:38:43;;;;;;;21.70;12.65;;;;;;;-4.55;82.84;98087.66;5010426;28;20042;-80
2023/02/07 01:41:12;;;;;;;23.35;11.45;;;;;;;-4.57;82.30;98094.16;5009668;28;20046;-80
2023/02/07 01:43:54;;;;;;;18.65;11.13;;;;;;;-4.57;82.22;98095.00;5006266;28;20042;-82
2023/02/07 01:46:20;;;;;;;18.88;11.18;;;;;;;-4.57;82.16;98092.34;5009791;28;20038;-80
2023/02/07 01:48:48;;;;;;;19.90;11.30;;;;;;;-4.60;82.52;98097.19;5010618;28;20136;-86
2023/02/07 01:51:16;;;;;;;18.10;10.60;;;;;;;-4.61;81.68;98083.06;5006413;28;20418;-82
2023/02/07 01:53:43;;;;;;;17.52;10.73;;;;;;;-4.60;81.82;98092.69;5010217;28;20049;-84
2023/02/07 01:56:13;;;;;;;20.25;10.98;;;;;;;-4.71;81.59;98090.47;5009766;28;20050;-81
2023/02/07 01:58:40;;;;;;;20.90;10.48;;;;;;;-4.66;81.65;98092.59;5010392;28;20053;-82
2023/02/07 02:01:12;;;;;;;20.05;10.88;;;;;;;-4.65;81.63;98105.69;5009967;28;20429;-83
2023/02/07 02:03:43;;;;;;;18.33;10.65;;;;;;;-4.70;81.46;98110.72;5010553;28;20649;-81
2023/02/07 02:06:11;;;;;;;18.33;11.10;;;;;;;-4.70;81.34;98109.88;5009657;28;20046;-79
2023/02/07 02:08:39;;;;;;;20.73;10.98;;;;;;;-4.69;81.51;98101.75;5009909;28;20046;-83
2023/02/07 02:11:21;;;;;;;20.13;10.68;;;;;;;-4.68;80.89;98092.78;5010128;28;20540;-80
2023/02/07 02:13:56;;;;;;;24.08;10.73;;;;;;;-4.71;81.43;98093.13;4993938;28;20172;-83
2023/02/07 02:16:34;;;;;;;21.80;10.88;;;;;;;-4.73;81.92;98103.09;5009849;28;20046;-84
2023/02/07 02:19:26;;;;;;;20.77;10.48;;;;;;;-4.82;81.21;98106.81;5010187;28;20046;-83
2023/02/07 02:22:24;;;;;;;18.67;9.70;;;;;;;-4.79;81.60;98107.31;5006410;28;20052;-82
2023/02/07 02:25:21;;;;;;;17.60;9.65;;;;;;;-4.81;81.57;98108.47;5001048;28;20038;-87
2023/02/07 02:28:20;;;;;;;21.65;9.88;;;;;;;-4.83;81.33;98113.16;5000412;28;20042;-81
2023/02/07 02:31:08;;;;;;;20.08;10.27;;;;;;;-4.78;81.09;98113.44;4987499;28;20042;-84
2023/02/07 02:33:44;;;;;;;20.05;10.48;;;;;;;-4.84;81.43;98114.16;4997159;28;20052;-82
2023/02/07 02:36:19;;;;;;;19.65;10.20;;;;;;;-4.79;81.19;98119.78;5009222;28;20073;-80
2023/02/07 02:38:52;;;;;;;19.67;9.60;;;;;;;-4.85;80.90;98129.28;5009655;28;20054;-83
2023/02/07 02:41:23;;;;;;;17.23;9.70;;;;;;;-4.79;80.94;98130.41;5001381;28;20065;-83
2023/02/07 02:43:54;;;;;;;16.60;9.52;;;;;;;-4.83;80.38;98145.88;5009617;28;20045;-81
2023/02/07 02:46:24;;;;;;;19.00;9.57;;;;;;;-4.80;80.48;98121.59;5009243;28;20037;-81
2023/02/07 02:48:54;;;;;;;20.08;8.88;;;;;;;-4.89;80.14;98121.84;5009732;28;20046;-80
2023/02/07 02:51:21;;;;;;;17.38;9.35;;;;;;;-4.89;80.05;98112.03;5005547;28;20034;-81
2023/02/07 02:53:52;;;;;;;15.48;8.88;;;;;;;-4.84;78.96;98109.66;5009672;28;20046;-86
2023/02/07 02:56:52;;;;;;;17.50;9.05;;;;;;;-4.83;78.54;98113.16;5008872;28;20046;-83
2023/02/07 02:59:37;;;;;;;20.23;8.98;;;;;;;-4.83;78.50;98110.50;4965801;28;20614;-84
2023/02/07 03:02:17;;;;;;;16.13;8.63;;;;;;;-4.94;79.14;98108.25;5009147;28;20057;-82
2023/02/07 03:05:01;;;;;;;20.50;8.93;;;;;;;-4.90;78.39;98098.94;5009966;28;20057;-83
2023/02/07 03:07:44;;;;;;;13.77;7.90;;;;;;;-4.93;78.55;98100.09;5009660;28;20038;-84
2023/02/07 03:10:19;;;;;;;17.20;7.78;;;;;;;-4.97;78.52;98090.00;5009078;28;20042;-84
2023/02/07 03:12:55;;;;;;;16.83;8.55;;;;;;;-4.99;78.75;98085.69;5010089;28;20050;-82
2023/02/07 03:15:32;;;;;;;13.68;7.63;;;;;;;-4.95;78.37;98078.19;5009832;28;20410;-80
2023/02/07 03:18:03;;;;;;;19.02;8.15;;;;;;;-5.04;78.85;98076.59;5011006;28;20548;-78
2023/02/07 03:20:34;;;;;;;17.15;8.48;;;;;;;-5.02;78.69;98083.38;5012849;28;20045;-85
2023/02/07 03:23:04;;;;;;;15.75;7.72;;;;;;;-5.01;78.96;98082.41;5006680;28;20122;-80
2023/02/07 03:25:31;;;;;;;16.00;8.35;;;;;;;-5.03;78.58;98083.56;5013838;28;20053;-81
2023/02/07 03:27:58;;;;;;;15.52;8.30;;;;;;;-5.03;78.69;98099.50;5014301;28;20057;-81
2023/02/07 03:30:30;;;;;;;16.15;8.00;;;;;;;-5.03;78.59;98095.00;4999417;28;20132;-78
2023/02/07 03:33:02;;;;;;;19.17;8.23;;;;;;;-5.10;78.29;98099.38;5014535;28;20057;-85
2023/02/07 03:35:37;;;;;;;17.60;8.05;;;;;;;-5.10;78.60;98088.75;5002474;28;20081;-82
2023/02/07 03:38:05;;;;;;;16.55;8.63;;;;;;;-5.11;78.71;98087.13;5011896;28;20050;-83
2023/02/07 03:40:36;;;;;;;16.58;8.52;;;;;;;-5.18;79.14;98093.28;5013371;28;20156;-81
2023/02/07 03:43:07;;;;;;;17.88;9.13;;;;;;;-5.15;79.02;98099.09;5012198;28;20042;-82
2023/02/07 03:45:34;;;;;;;17.55;8.68;;;;;;;-5.15;78.94;98080.50;5012429;28;20053;-79
2023/02/07 03:48:01;;;;;;;17.60;9.15;;;;;;;-5.14;78.76;98092.75;5013370;28;20054;-79
2023/02/07 03:50:27;;;;;;;19.13;9.02;;;;;;;-5.11;79.00;98097.75;5013383;28;20516;-82
2023/02/07 03:52:55;;;;;;;16.35;8.85;;;;;;;-5.16;79.31;98110.72;4999601;28;20054;-79
2023/02/07 03:55:22;;;;;;;18.80;9.50;;;;;;;-5.12;79.19;98105.84;5015573;28;20060;-85
2023/02/07 03:57:48;;;;;;;18.73;8.55;;;;;;;-5.09;78.54;98101.03;5016586;28;20054;-83
2023/02/07 04:00:15;;;;;;;16.33;8.68;;;;;;;-5.12;78.66;98104.03;5019518;28;20050;-83
2023/02/07 04:02:42;;;;;;;17.85;9.20;;;;;;;-5.11;79.38;98113.69;5020235;28;20054;-83
2023/02/07 04:05:09;;;;;;;16.30;8.52;;;;;;;-5.12;79.46;98117.31;5016628;28;20046;-80
2023/02/07 04:07:35;;;;;;;19.13;8.75;;;;;;;-5.13;79.18;98110.34;5016926;28;20049;-81
2023/02/07 04:10:04;;;;;;;19.17;8.23;;;;;;;-5.16;79.59;98105.41;5017321;28;20057;-84
2023/02/07 04:12:31;;;;;;;16.40;9.05;;;;;;;-5.19;79.49;98116.38;5016117;28;20050;-84
2023/02/07 04:14:58;;;;;;;16.55;9.18;;;;;;;-5.14;79.57;98108.69;5001379;28;20515;-83
2023/02/07 04:17:24;;;;;;;17.30;9.35;;;;;;;-5.21;79.33;98105.09;5000477;28;20054;-84
2023/02/07 04:19:51;;;;;;;15.30;8.45;;;;;;;-5.21;79.28;98102.44;5014415;28;20490;-79
2023/02/07 04:22:17;;;;;;;20.85;9.10;;;;;;;-5.23;79.12;98096.47;5010983;28;20050;-85
2023/02/07 04:24:44;;;;;;;17.02;8.70;;;;;;;-5.22;79.23;98097.28;5019099;28;20054;-83
2023/02/07 04:27:12;;;;;;;16.55;8.93;;;;;;;-5.27;78.87;98093.34;5017336;28;20042;-86
2023/02/07 04:29:38;;;;;;;22.52;9.27;;;;;;;-5.29;79.55;98090.03;5019725;28;20050;-83
2023/02/07 04:32:05;;;;;;;18.45;9.82;;;;;;;-5.34;79.91;98080.94;5020052;28;20038;-80
2023/02/07 04:34:32;;;;;;;19.08;8.48;;;;;;;-5.30;79.84;98074.28;5021088;28;20042;-81
2023/02/07 04:36:58;;;;;;;18.55;9.05;;;;;;;-5.28;79.57;98072.25;5020774;28;20049;-85
2023/02/07 04:39:25;;;;;;;16.02;8.68;;;;;;;-5.29;79.82;98083.91;5002971;28;20064;-86
2023/02/07 04:41:52;;;;;;;18.55;9.65;;;;;;;-5.28;80.07;98077.56;5021456;28;20049;-79
2023/02/07 04:44:19;;;;;;;19.50;8.95;;;;;;;-5.29;80.11;98091.84;5018022;28;20050;-84
2023/02/07 04:46:46;;;;;;;17.58;8.82;;;;;;;-5.28;80.13;98080.22;5016081;28;20038;-81
2023/02/07 04:49:12;;;;;;;21.27;9.18;;;;;;;-5.34;80.00;98088.91;5015652;28;20053;-80
2023/02/07 04:51:39;;;;;;;17.88;8.98;;;;;;;-5.32;80.26;98094.88;5010022;28;20056;-85
2023/02/07 04:54:05;;;;;;;15.25;8.20;;;;;;;-5.31;80.38;98107.16;5016811;28;20042;-83
2023/02/07 04:56:32;;;;;;;18.08;9.80;;;;;;;-5.32;80.11;98105.50;5018053;28;20046;-81
2023/02/07 04:58:58;;;;;;;17.05;8.88;;;;;;;-5.33;80.29;98114.44;5020258;28;20046;-78
2023/02/07 05:01:26;;;;;;;20.33;9.25;;;;;;;-5.31;80.30;98117.78;5018662;28;20089;-85
2023/02/07 05:03:53;;;;;;;19.38;9.23;;;;;;;-5.33;80.42;98119.75;5017872;28;20042;-85
2023/02/07 05:06:19;;;;;;;16.08;8.02;;;;;;;-5.35;80.54;98113.81;5016856;28;20046;-84
2023/02/07 05:08:46;;;;;;;20.05;9.73;;;;;;;-5.41;80.31;98102.06;5018632;28;20050;-83
2023/02/07 05:11:13;;;;;;;20.27;9.77;;;;;;;-5.33;80.24;98098.50;5015249;28;20049;-82
2023/02/07 05:13:40;;;;;;;14.98;8.48;;;;;;;-5.43;80.15;98095.25;5017284;28;20104;-80
2023/02/07 05:16:06;;;;;;;18.48;9.68;;;;;;;-5.44;80.45;98102.38;5015524;28;20046;-82
2023/02/07 05:18:34;;;;;;;20.70;9.15;;;;;;;-5.44;80.48;98099.72;5017563;28;20049;-88
2023/02/07 05:21:01;;;;;;;20.73;9.52;;;;;;;-5.46;80.35;98095.63;5011229;28;20050;-86
2023/02/07 05:23:28;;;;;;;24.60;9.45;;;;;;;-5.43;80.54;98103.22;5018703;28;20046;-84
2023/02/07 05:25:54;;;;;;;19.63;9.40;;;;;;;-5.44;80.81;98107.69;5018006;28;20045;-82
2023/02/07 05:28:24;;;;;;;25.02;10.50;;;;;;;-5.51;81.13;98106.75;5017081;28;20486;-80
2023/02/07 05:30:54;;;;;;;19.83;9.45;;;;;;;-5.48;81.16;98100.25;5018923;28;20192;-86
2023/02/07 05:33:19;;;;;;;21.25;9.88;;;;;;;-5.48;81.09;98092.28;5018348;28;20637;-81
2023/02/07 05:35:47;;;;;;;20.70;9.85;;;;;;;-5.46;81.16;98092.97;5016984;28;20050;-87
2023/02/07 05:38:17;;;;;;;19.20;9.50;;;;;;;-5.47;81.33;98096.63;5015737;28;20046;-82
2023/02/07 05:40:44;;;;;;;22.05;9.50;;;;;;;-5.54;81.53;98113.22;5016534;28;20052;-81
2023/02/07 05:43:11;;;;;;;18.02;9.63;;;;;;;-5.56;81.47;98120.53;5018815;28;20053;-85
2023/02/07 05:45:38;;;;;;;21.40;9.98;;;;;;;-5.57;81.80;98113.56;5018244;28;20045;-84
2023/02/07 05:48:05;;;;;;;20.33;10.25;;;;;;;-5.59;81.55;98107.59;5017906;28;20046;-83
2023/02/07 05:50:32;;;;;;;21.25;10.30;;;;;;;-5.58;81.57;98103.97;5008674;28;20053;-85
2023/02/07 05:53:00;;;;;;;17.25;8.98;;;;;;;-5.59;81.67;98101.47;5009506;28;20061;-83
2023/02/07 05:55:26;;;;;;;18.58;9.57;;;;;;;-5.61;81.70;98101.66;5002393;28;20041;-82
2023/02/07 05:57:53;;;;;;;21.45;10.25;;;;;;;-5.63;82.12;98119.59;5015128;28;20053;-82
2023/02/07 06:00:20;;;;;;;18.20;9.50;;;;;;;-5.63;81.91;98118.75;5014068;28;20053;-85
2023/02/07 06:02:46;;;;;;;18.98;9.93;;;;;;;-5.65;82.13;98132.19;5014842;28;20049;-81
2023/02/07 06:05:15;;;;;;;21.67;10.32;;;;;;;-5.67;82.25;98136.00;5014539;28;20042;-80
2023/02/07 06:07:42;;;;;;;19.80;9.60;;;;;;;-5.64;82.23;98144.44;5015515;28;20061;-83
2023/02/07 06:10:11;;;;;;;21.17;10.90;;;;;;;-5.64;82.18;98149.75;5012821;28;20042;-83
2023/02/07 06:12:37;;;;;;;21.58;10.60;;;;;;;-5.62;82.40;98150.41;5013942;28;20046;-83
2023/02/07 06:15:05;;;;;;;22.90;10.68;;;;;;;-5.65;82.40;98153.41;5012988;28;20046;-84
2023/02/07 06:17:31;;;;;;;21.33;10.60;;;;;;;-5.65;82.38;98153.41;5011796;28;20045;-81
2023/02/07 06:19:58;;;;;;;22.83;11.50;;;;;;;-5.64;82.66;98148.91;5013056;28;20046;-82
2023/02/07 06:22:25;;;;;;;19.05;9.98;;;;;;;-5.66;82.73;98140.31;5005385;28;20061;-82
2023/02/07 06:24:51;;;;;;;19.85;10.60;;;;;;;-5.70;82.65;98150.44;5013210;28;20434;-82
2023/02/07 06:27:20;;;;;;;20.17;10.48;;;;;;;-5.69;82.79;98149.47;5012651;28;20046;-81
2023/02/07 06:29:46;;;;;;;18.92;9.98;;;;;;;-5.68;83.01;98132.53;5012894;28;20052;-80
2023/02/07 06:32:13;;;;;;;23.33;11.05;;;;;;;-5.67;83.25;98142.16;5013102;28;20107;-83
2023/02/07 06:34:39;;;;;;;23.95;11.00;;;;;;;-5.67;83.52;98143.97;5013172;28;20046;-84
2023/02/07 06:37:06;;;;;;;21.58;10.57;;;;;;;-5.65;83.39;98136.66;5013369;28;20052;-81
2023/02/07 06:39:32;;;;;;;19.00;10.13;;;;;;;-5.65;83.68;98147.28;5012902;28;20065;-81
2023/02/07 06:41:59;;;;;;;19.98;10.15;;;;;;;-5.62;83.58;98142.47;5011972;28;20092;-79
2023/02/07 06:44:27;;;;;;;21.83;10.68;;;;;;;-5.61;83.23;98148.59;5011401;28;20053;-80
2023/02/07 06:46:53;;;;;;;23.75;11.75;;;;;;;-5.61;83.39;98148.59;5014481;28;20041;-80
2023/02/07 06:49:20;;;;;;;23.98;12.10;;;;;;;-5.58;83.64;98149.09;5010991;28;20042;-77
2023/02/07 06:51:47;;;;;;;24.08;12.00;;;;;;;-5.56;83.53;98155.03;5007123;28;20050;-83
2023/02/07 06:54:13;;;;;;;25.27;12.48;;;;;;;-5.56;83.56;98152.38;5010610;28;20050;-81
2023/02/07 06:56:40;;;;;;;22.70;10.60;;;;;;;-5.49;83.49;98152.50;5010871;28;20521;-79
2023/02/07 06:59:06;;;;;;;21.15;10.90;;;;;;;-5.48;83.39;98148.03;5010130;28;20072;-81
2023/02/07 07:01:34;;;;;;;23.40;10.43;;;;;;;-5.49;83.09;98157.00;5010840;28;20520;-77
2023/02/07 07:04:01;;;;;;;22.02;10.80;;;;;;;-5.55;82.54;98154.03;5010233;28;20057;-80
2023/02/07 07:06:27;;;;;;;20.70;11.00;;;;;;;-5.49;82.08;98146.38;5010334;28;20057;-80
2023/02/07 07:08:54;;;;;;;25.73;11.15;;;;;;;-5.53;82.18;98149.41;5010621;28;20057;-81
2023/02/07 07:11:20;;;;;;;26.33;11.77;;;;;;;-5.47;82.08;98155.03;5009527;28;20069;-80
2023/02/07 07:13:47;;;;;;;23.48;11.30;;;;;;;-5.42;82.17;98152.69;5010439;28;20042;-83
2023/02/07 07:16:14;;;;;;;20.10;10.98;;;;;;;-5.33;81.99;98143.66;5009524;28;20057;-81
2023/02/07 07:18:42;;;;;;;24.92;10.70;;;;;;;-5.26;82.10;98147.28;5010010;28;20723;-79
2023/02/07 07:21:09;;;;;;;19.90;11.05;;;;;;;-5.19;81.93;98148.22;5003064;28;20043;-81
2023/02/07 07:23:36;;;;;;;23.52;11.50;;;;;;;-5.15;81.70;98152.19;5010422;28;20053;-78
2023/02/07 07:26:03;;;;;;;22.63;11.40;;;;;;;-5.01;81.42;98154.13;5011089;28;20050;-79
2023/02/07 07:28:30;;;;;;;24.13;11.55;;;;;;;-4.99;80.55;98160.06;5013800;28;20069;-81
2023/02/07 07:31:02;;;;;;;22.80;11.02;;;;;;;-5.00;79.92;98163.75;5013836;28;20134;-80
2023/02/07 07:33:28;;;;;;;22.30;10.80;;;;;;;-4.99;80.54;98148.63;4998363;28;20050;-79
2023/02/07 07:35:58;;;;;;;25.42;11.30;;;;;;;-4.92;80.64;98148.75;5013474;28;20285;-77
2023/02/07 07:38:25;;;;;;;22.67;10.75;;;;;;;-4.91;80.30;98142.41;5012842;28;20045;-77
2023/02/07 07:40:51;;;;;;;24.27;11.55;;;;;;;-4.87;80.27;98149.03;5013632;28;20049;-77
2023/02/07 07:43:18;;;;;;;22.50;11.93;;;;;;;-4.81;79.85;98135.03;5013115;28;20042;-79
2023/02/07 07:45:46;;;;;;;24.00;11.05;;;;;;;-4.76;79.27;98125.53;5013466;28;20049;-80
2023/02/07 07:48:12;;;;;;;22.42;10.85;;;;;;;-4.65;78.69;98134.94;5012527;28;20045;-79
2023/02/07 07:50:39;;;;;;;25.10;11.45;;;;;;;-4.68;79.22;98143.28;5004602;28;20073;-77
2023/02/07 07:53:07;;;;;;;22.05;11.85;;;;;;;-4.64;79.01;98139.25;5010552;28;20445;-82
2023/02/07 07:55:33;;;;;;;24.88;11.43;;;;;;;-4.57;78.79;98142.84;5014131;28;20050;-77
2023/02/07 07:58:00;;;;;;;22.77;11.30;;;;;;;-4.52;78.30;98143.13;5013163;28;20053;-81
2023/02/07 08:00:26;;;;;;;20.63;11.52;;;;;;;-4.43;78.42;98149.22;5013264;28;20049;-79
2023/02/07 08:02:53;;;;;;;21.60;11.52;;;;;;;-4.35;78.31;98150.97;5013845;28;20049;-80
2023/02/07 08:05:20;;;;;;;21.40;11.65;;;;;;;-4.23;78.56;98144.22;5013208;28;20149;-77
2023/02/07 08:07:47;;;;;;;29.42;12.23;;;;;;;-4.13;78.40;98150.09;5013966;28;20054;-79
2023/02/07 08:10:15;;;;;;;23.45;12.90;;;;;;;-3.97;78.63;98157.97;5013208;28;20046;-79
2023/02/07 08:12:41;;;;;;;26.92;11.98;;;;;;;-3.77;78.12;98160.06;5013542;28;20050;-75
2023/02/07 08:15:08;;;;;;;22.20;11.68;;;;;;;-3.70;76.91;98150.38;5012895;28;20060;-77
2023/02/07 08:17:35;;;;;;;28.77;12.00;;;;;;;-3.65;76.29;98152.44;5013564;28;20058;-79
2023/02/07 08:20:03;;;;;;;26.58;12.25;;;;;;;-3.55;75.56;98150.34;5013116;28;20100;-78
2023/02/07 08:22:30;;;;;;;26.25;12.13;;;;;;;-3.52;74.99;98145.47;5009859;28;20046;-76
2023/02/07 08:24:56;;;;;;;23.38;11.35;;;;;;;-3.41;74.97;98157.50;5013665;28;20085;-77
2023/02/07 08:27:24;;;;;;;22.70;11.23;;;;;;;-3.31;75.95;98154.56;5013017;28;20046;-77
2023/02/07 08:29:51;;;;;;;23.70;11.43;;;;;;;-3.10;74.17;98149.28;5014311;28;20044;-78
2023/02/07 08:32:17;;;;;;;25.25;11.85;;;;;;;-3.00;72.91;98155.13;5014777;28;20056;-77
2023/02/07 08:34:44;;;;;;;21.38;11.05;;;;;;;-2.98;71.58;98150.44;5015473;28;20573;-76
2023/02/07 08:37:11;;;;;;;18.92;10.85;;;;;;;-2.92;71.23;98160.38;5012245;28;20042;-76
2023/02/07 08:39:38;;;;;;;21.20;10.60;;;;;;;-2.77;71.39;98151.47;5013255;28;20050;-75
2023/02/07 08:42:06;;;;;;;20.30;11.10;;;;;;;-2.35;70.20;98153.31;5012788;28;20069;-78
2023/02/07 08:44:35;;;;;;;20.00;10.43;;;;;;;-1.46;67.14;98156.25;5012977;28;20509;-76
2023/02/07 08:47:02;;;;;;;21.15;10.25;;;;;;;-0.67;63.38;98154.94;5012011;28;20053;-75
2023/02/07 08:49:28;;;;;;;19.52;10.10;;;;;;;-0.17;61.08;98152.72;5012710;28;20085;-77
2023/02/07 08:51:55;;;;;;;20.40;10.25;;;;;;;0.54;60.29;98152.88;5006444;28;20042;-76
2023/02/07 08:54:22;;;;;;;19.40;9.80;;;;;;;0.59;58.99;98155.75;5011931;28;20046;-76
2023/02/07 08:56:49;;;;;;;18.45;9.45;;;;;;;0.46;60.13;98150.41;5013077;28;20076;-75
2023/02/07 08:59:15;;;;;;;17.52;9.48;;;;;;;0.19;59.08;98155.81;5011545;28;20502;-74
2023/02/07 09:01:43;;;;;;;16.63;9.35;;;;;;;-0.04;59.90;98160.75;5012442;28;20420;-75
2023/02/07 09:04:10;;;;;;;17.63;8.82;;;;;;;-0.45;60.78;98156.41;5011714;28;20060;-74
2023/02/07 09:06:37;;;;;;;16.88;9.13;;;;;;;-0.77;61.54;98165.19;5013093;28;20052;-75
2023/02/07 09:09:04;;;;;;;17.38;9.70;;;;;;;-1.02;63.19;98156.88;5012155;28;20527;-78
2023/02/07 09:11:31;;;;;;;19.42;9.45;;;;;;;-1.27;63.56;98157.38;5013562;28;20046;-74
2023/02/07 09:13:57;;;;;;;21.10;9.77;;;;;;;-1.13;63.77;98166.28;5012946;28;20053;-74
2023/02/07 09:16:24;;;;;;;19.17;10.25;;;;;;;-1.12;64.59;98160.72;4997057;28;20398;-75
2023/02/07 09:18:52;;;;;;;16.08;9.38;;;;;;;-0.95;63.36;98158.53;4996962;28;20057;-77
2023/02/07 09:21:19;;;;;;;19.60;9.63;;;;;;;-1.06;63.63;98159.09;5008696;28;20077;-73
2023/02/07 09:23:46;;;;;;;17.08;9.45;;;;;;;-1.14;63.78;98169.97;5012548;28;20050;-76
2023/02/07 09:26:17;;;;;;;21.92;9.68;;;;;;;-1.17;63.90;98171.19;5012118;28;20418;-73
2023/02/07 09:28:44;;;;;;;18.17;9.98;;;;;;;-1.12;64.81;98170.59;5012323;28;20502;-74
2023/02/07 09:31:12;;;;;;;23.10;10.48;;;;;;;-0.86;64.70;98168.03;5011878;28;20045;-75
2023/02/07 09:33:40;;;;;;;19.83;10.82;;;;;;;-0.67;63.56;98176.31;5012511;28;20049;-75
2023/02/07 09:36:17;;;;;;;16.10;9.50;;;;;;;-0.67;62.43;98170.97;5011841;28;20052;-74
2023/02/07 09:38:44;;;;;;;22.50;9.95;;;;;;;-0.44;62.49;98160.72;5011840;28;20417;-74
2023/02/07 09:41:19;;;;;;;19.58;9.60;;;;;;;-0.27;61.73;98164.66;5011851;28;20103;-73
2023/02/07 09:43:59;;;;;;;19.02;9.45;;;;;;;-0.43;61.76;98173.06;5000181;28;20053;-73
2023/02/07 09:46:30;;;;;;;26.33;10.25;;;;;;;-0.36;61.23;98162.41;4996439;28;20045;-73
2023/02/07 09:49:04;;;;;;;18.85;10.15;;;;;;;-0.08;61.37;98162.19;5012087;28;20053;-74
2023/02/07 09:51:34;;;;;;;18.80;9.93;;;;;;;0.72;59.89;98165.59;5006988;28;20065;-74
2023/02/07 09:54:06;;;;;;;19.40;10.63;;;;;;;1.27;58.56;98163.34;5013452;28;20041;-75
2023/02/07 09:56:34;;;;;;;18.23;9.23;;;;;;;1.64;56.71;98164.34;4997386;28;20049;-74
2023/02/07 09:59:06;;;;;;;20.60;8.98;;;;;;;1.73;55.46;98156.88;5012986;28;20057;-73
2023/02/07 10:01:37;;;;;;;19.10;9.43;;;;;;;2.01;55.20;98153.75;5013100;28;20050;-73
2023/02/07 10:04:20;;;;;;;16.65;8.70;;;;;;;2.56;54.44;98156.59;5013032;28;20050;-74
2023/02/07 10:06:52;;;;;;;20.52;9.82;;;;;;;3.03;52.63;98156.91;5013560;28;20056;-73
2023/02/07 10:09:23;;;;;;;19.38;9.80;;;;;;;3.25;51.31;98158.06;5012558;28;20050;-73
2023/02/07 10:11:54;;;;;;;19.27;10.00;;;;;;;2.82;50.67;98156.31;5012795;28;20409;-73
2023/02/07 10:14:39;;;;;;;44.75;9.90;;;;;;;2.45;51.76;98139.28;5006416;28;20519;-73
2023/02/07 10:17:23;;;;;;;29.33;9.07;;;;;;;2.61;51.44;98143.28;5007274;28;20446;-73
2023/02/07 10:19:56;;;;;;;;;;;;;;;3.10;51.77;98141.47;5013506;28;20054;-73
2023/02/07 10:22:32;;;;;;;13.30;8.30;;;;;;;3.25;49.64;98147.28;5006778;28;20376;-73
2023/02/07 10:25:18;;;;;;;21.67;9.45;;;;;;;3.52;49.00;98144.25;5019502;28;20056;-73
2023/02/07 10:27:58;;;;;;;24.63;9.38;;;;;;;3.36;49.60;98143.81;5016921;28;20033;-74
2023/02/07 10:30:27;;;;;;;26.73;9.45;;;;;;;3.33;50.33;98144.25;5016325;28;20048;-74
2023/02/07 10:32:59;;;;;;;24.25;8.65;;;;;;;3.22;49.90;98155.81;5017194;28;20052;-74
2023/02/07 10:35:33;;;;;;;14.77;7.45;;;;;;;3.16;49.18;98159.41;5002481;28;20106;-74
2023/02/07 10:38:02;;;;;;;17.48;8.75;;;;;;;3.29;48.40;98161.09;5017865;28;20049;-73
2023/02/07 10:40:35;;;;;;;17.70;7.25;;;;;;;3.38;48.11;98160.56;5016829;28;20333;-74
2023/02/07 10:43:06;;;;;;;30.42;9.10;;;;;;;3.66;47.75;98161.88;5015565;28;20046;-73
2023/02/07 10:45:33;;;;;;;18.52;7.03;;;;;;;3.89;46.33;98161.91;5016608;28;20046;-73
2023/02/07 10:48:00;;;;;;;19.33;7.82;;;;;;;3.86;45.37;98162.41;5016594;28;20045;-74
2023/02/07 10:50:28;;;;;;;16.42;6.55;;;;;;;3.77;45.33;98163.78;5017514;28;20049;-74
2023/02/07 10:52:56;;;;;;;15.10;7.40;;;;;;;3.81;45.90;98164.09;5012554;28;20145;-74
2023/02/07 10:55:39;;;;;;;17.63;6.55;;;;;;;3.72;42.54;98155.56;5017890;28;20053;-74
2023/02/07 10:58:06;;;;;;;22.80;7.20;;;;;;;3.73;44.19;98156.38;5017309;28;20076;-74
2023/02/07 11:00:33;;;;;;;22.15;7.55;;;;;;;3.53;44.10;98159.34;5018135;28;20060;-74
2023/02/07 11:03:04;;;;;;;19.30;7.28;;;;;;;3.23;44.38;98164.72;5017343;28;20114;-74
2023/02/07 11:05:34;;;;;;;19.48;6.97;;;;;;;3.17;45.31;98166.44;5015135;28;20049;-74
2023/02/07 11:08:03;;;;;;;18.42;7.18;;;;;;;3.16;44.63;98151.34;5014865;28;20064;-74
2023/02/07 11:10:36;;;;;;;25.35;8.27;;;;;;;2.97;47.07;98161.28;5014553;28;20048;-74
2023/02/07 11:13:04;;;;;;;19.02;8.15;;;;;;;2.82;45.78;98161.69;5014538;28;20053;-75
2023/02/07 11:15:38;;;;;;;30.15;9.50;;;;;;;2.72;47.22;98156.00;5012602;28;20046;-74
2023/02/07 11:18:06;;;;;;;32.08;8.90;;;;;;;2.80;48.94;98153.00;5010573;28;20052;-74
2023/02/07 11:20:35;;;;;;;20.92;8.65;;;;;;;2.84;48.17;98156.88;5001235;28;20053;-74
2023/02/07 11:23:06;;;;;;;32.85;10.57;;;;;;;2.60;46.67;98149.69;5005396;28;20049;-74
2023/02/07 11:25:37;;;;;;;22.58;8.73;;;;;;;2.65;48.14;98152.53;5011945;28;20052;-73
2023/02/07 11:28:04;;;;;;;31.77;9.00;;;;;;;2.53;47.74;98146.25;5011645;28;20065;-75
2023/02/07 11:30:36;;;;;;;45.70;11.27;;;;;;;3.05;47.67;98133.25;5012149;28;20046;-73